Time;durP1;ratioP1;P1;durP2;ratioP2;P2;SDS_P1;SDS_P2;PMS_P1;PMS_P2;Temp;Humidity;BMP_temperature;BMP_pressure;BME280_temperature;BME280_humidity;BME280_pressure;Samples;Min_cycle;Max_cycle;Signal;HPM_P1;HPM_P2
2022/04/04 00:02:20;;;;;;;5.73;4.73;;;;;;;-0.53;69.20;98016.81;6166520;28;20288;-80
2022/04/04 00:05:22;;;;;;;4.63;4.20;;;;;;;-0.58;70.42;98010.91;6173762;28;20612;-80
2022/04/04 00:08:24;;;;;;;5.67;4.87;;;;;;;-0.61;70.15;98004.97;6156910;28;20304;-80
2022/04/04 00:11:26;;;;;;;5.97;4.57;;;;;;;-0.66;70.68;98015.47;6163972;28;20221;-80
2022/04/04 00:14:29;;;;;;;6.87;4.80;;;;;;;-0.68;70.87;98016.41;6180747;28;20229;-80
2022/04/04 00:17:32;;;;;;;5.90;4.50;;;;;;;-0.71;71.17;98016.50;6165007;28;20324;-80
2022/04/04 00:20:35;;;;;;;7.40;5.20;;;;;;;-0.76;71.67;98001.09;6181957;28;20236;-80
2022/04/04 00:23:37;;;;;;;4.50;4.10;;;;;;;-0.72;70.47;98007.91;6180752;28;20609;-80
2022/04/04 00:26:39;;;;;;;5.77;4.77;;;;;;;-0.72;70.89;98010.47;6164936;28;20245;-80
2022/04/04 00:29:41;;;;;;;5.20;4.70;;;;;;;-0.77;71.24;98005.44;6163955;28;20642;-80
2022/04/04 00:32:44;;;;;;;7.63;4.63;;;;;;;-0.78;71.39;98002.88;6176592;28;20272;-80
2022/04/04 00:35:47;;;;;;;4.90;4.03;;;;;;;-0.83;71.93;98004.78;6156201;28;20261;-80
2022/04/04 00:38:49;;;;;;;7.23;4.70;;;;;;;-0.82;71.75;98006.47;6162683;28;20721;-80
2022/04/04 00:41:52;;;;;;;5.47;4.97;;;;;;;-0.81;72.23;98003.84;6178853;28;20225;-80
2022/04/04 00:44:54;;;;;;;7.20;5.57;;;;;;;-0.83;72.15;98008.22;6178857;28;20240;-80
2022/04/04 00:47:56;;;;;;;5.73;5.10;;;;;;;-0.82;72.48;98003.88;6179835;28;20605;-80
2022/04/04 00:50:59;;;;;;;6.53;5.80;;;;;;;-0.81;72.56;98003.00;6162720;28;20255;-80
2022/04/04 00:54:02;;;;;;;6.77;5.00;;;;;;;-0.84;72.75;98003.91;6153923;28;20250;-80
2022/04/04 00:57:04;;;;;;;7.03;5.70;;;;;;;-0.88;72.87;98001.44;6161351;28;20312;-80
2022/04/04 01:00:09;;;;;;;6.17;5.17;;;;;;;-0.93;73.31;97993.84;6179106;28;20213;-80
2022/04/04 01:03:11;;;;;;;8.67;6.83;;;;;;;-0.88;73.91;97994.53;6178885;28;20224;-80
2022/04/04 01:06:14;;;;;;;8.87;6.10;;;;;;;-0.87;73.85;97991.06;6178382;28;20333;-80
2022/04/04 01:09:16;;;;;;;7.23;6.10;;;;;;;-0.85;73.40;97998.78;6178142;28;20229;-80
2022/04/04 01:12:22;;;;;;;8.00;6.53;;;;;;;-0.87;73.86;97997.97;6178007;28;20205;-80
2022/04/04 01:15:30;;;;;;;8.93;6.90;;;;;;;-0.91;73.53;97994.66;6177693;28;20600;-80
2022/04/04 01:18:32;;;;;;;7.73;6.80;;;;;;;-0.94;74.59;97999.91;6178926;28;20225;-80
2022/04/04 01:21:34;;;;;;;8.00;6.87;;;;;;;-0.92;74.60;97998.13;6178109;28;20240;-80
2022/04/04 01:24:38;;;;;;;9.30;6.90;;;;;;;-0.92;74.73;97998.13;6176478;28;20740;-80
2022/04/04 01:27:45;;;;;;;10.87;7.07;;;;;;;-0.96;74.87;97993.06;6179632;28;20233;-80
2022/04/04 01:30:53;;;;;;;10.40;7.77;;;;;;;-0.96;75.42;97998.25;6159112;28;20222;-80
2022/04/04 01:33:55;;;;;;;10.07;8.10;;;;;;;-0.96;75.43;97993.06;6162709;28;20578;-80
2022/04/04 01:36:58;;;;;;;10.10;7.33;;;;;;;-1.01;75.45;97995.81;6156854;28;20221;-80
2022/04/04 01:40:00;;;;;;;10.80;8.73;;;;;;;-1.01;76.21;97993.22;6178492;28;20232;-80
2022/04/04 01:43:02;;;;;;;9.00;7.30;;;;;;;-1.02;76.12;97988.06;6177886;28;20244;-80
2022/04/04 01:49:25;;;;;;;9.27;7.37;;;;;;;-1.09;76.26;97987.38;6177513;28;20241;-80
2022/04/04 01:52:27;;;;;;;14.60;7.37;;;;;;;-1.06;76.19;97984.72;6161467;28;20243;-80
2022/04/04 01:55:30;;;;;;;12.03;7.87;;;;;;;-1.04;76.22;97992.44;6161365;28;20229;-80
2022/04/04 01:58:33;;;;;;;9.63;8.00;;;;;;;-1.02;75.99;97991.53;6162331;28;20233;-80
2022/04/04 02:01:36;;;;;;;10.03;7.27;;;;;;;-1.01;75.82;97990.63;6146266;28;20233;-80
2022/04/04 02:04:38;;;;;;;12.73;7.70;;;;;;;-1.03;76.05;97987.22;6178640;28;20264;-80
2022/04/04 02:07:40;;;;;;;9.43;7.30;;;;;;;-1.02;75.81;97985.50;6176523;28;20241;-80
2022/04/04 02:10:44;;;;;;;10.73;8.13;;;;;;;-1.00;75.48;97984.56;6178264;28;20237;-80
2022/04/04 02:13:47;;;;;;;9.97;7.10;;;;;;;-1.04;75.55;97993.28;6166527;28;20237;-80
2022/04/04 02:16:49;;;;;;;11.80;7.50;;;;;;;-1.10;75.28;97985.72;6183924;28;20232;-80
2022/04/04 02:19:52;;;;;;;12.50;8.27;;;;;;;-1.14;75.99;97978.91;6166471;28;20233;-80
2022/04/04 02:22:54;;;;;;;11.30;7.47;;;;;;;-1.14;75.85;97981.50;6180556;28;20904;-80
2022/04/04 02:25:57;;;;;;;10.00;8.07;;;;;;;-1.07;75.38;97982.16;6184368;28;20233;-80
2022/04/04 02:29:00;;;;;;;10.23;7.90;;;;;;;-1.11;75.50;97981.44;6166061;28;20233;-80
2022/04/04 02:32:02;;;;;;;10.33;7.70;;;;;;;-1.18;75.85;97990.25;6183277;28;20236;-80
2022/04/04 02:35:05;;;;;;;8.97;7.80;;;;;;;-1.24;76.40;97978.34;6183225;28;20244;-81
2022/04/04 02:38:08;;;;;;;10.90;7.93;;;;;;;-1.23;76.22;97986.94;6164901;28;20221;-80
2022/04/04 02:41:12;;;;;;;10.80;7.80;;;;;;;-1.25;76.55;97984.41;6184291;28;20291;-80
2022/04/04 02:44:14;;;;;;;9.17;7.80;;;;;;;-1.28;76.78;97983.63;6182672;28;20225;-80
2022/04/04 02:47:16;;;;;;;11.10;8.10;;;;;;;-1.33;77.12;97980.34;6167162;28;20429;-80
2022/04/04 02:50:19;;;;;;;9.67;7.57;;;;;;;-1.32;76.49;97976.88;6181903;28;20752;-81
2022/04/04 02:53:21;;;;;;;10.30;7.17;;;;;;;-1.34;76.68;97989.00;6180883;28;20244;-80
2022/04/04 02:56:29;;;;;;;9.63;7.30;;;;;;;-1.37;77.07;97982.16;6158058;28;20508;-80
2022/04/04 02:59:32;;;;;;;9.03;7.33;;;;;;;-1.34;76.64;97982.06;6172208;28;20257;-80
2022/04/04 03:02:35;;;;;;;8.97;7.47;;;;;;;-1.35;76.14;97975.19;6158327;28;20236;-80
2022/04/04 03:05:38;;;;;;;9.93;6.73;;;;;;;-1.37;76.02;97976.97;6174937;28;20230;-80
2022/04/04 03:08:40;;;;;;;8.87;7.10;;;;;;;-1.43;76.46;97977.16;6170873;28;20391;-80
2022/04/04 03:11:42;;;;;;;11.20;7.07;;;;;;;-1.45;76.10;97976.34;6170590;28;20598;-80
2022/04/04 03:14:45;;;;;;;8.70;7.03;;;;;;;-1.45;76.29;97972.91;6179854;28;20224;-80
2022/04/04 03:17:49;;;;;;;10.03;7.10;;;;;;;-1.50;76.57;97976.47;6180853;28;20225;-80
2022/04/04 03:20:53;;;;;;;9.43;6.60;;;;;;;-1.55;76.57;97973.16;6165715;28;20232;-81
2022/04/04 03:23:56;;;;;;;9.73;6.70;;;;;;;-1.58;77.05;97968.06;6180251;28;20259;-80
2022/04/04 03:26:58;;;;;;;7.87;6.47;;;;;;;-1.61;76.89;97978.53;6180472;28;20236;-80
2022/04/04 03:30:02;;;;;;;9.13;6.80;;;;;;;-1.63;76.93;97975.13;6187465;28;20605;-80
2022/04/04 03:33:04;;;;;;;7.33;6.37;;;;;;;-1.63;76.64;97969.09;6160989;28;20615;-80
2022/04/04 03:36:06;;;;;;;8.03;6.67;;;;;;;-1.62;76.70;97966.47;6140377;28;20245;-80
2022/04/04 03:39:12;;;;;;;8.53;6.93;;;;;;;-1.62;76.54;97963.88;6139393;28;20561;-80
2022/04/04 03:42:16;;;;;;;8.37;7.00;;;;;;;-1.63;75.78;97956.16;6140157;28;20218;-80
2022/04/04 03:45:21;;;;;;;9.53;6.97;;;;;;;-1.65;75.87;97957.94;6140148;28;20576;-80
2022/04/04 03:48:23;;;;;;;9.73;6.93;;;;;;;-1.57;75.09;97950.81;6156503;28;20701;-80
2022/04/04 03:51:26;;;;;;;9.17;6.63;;;;;;;-1.55;75.08;97954.19;6156076;28;20233;-80
2022/04/04 03:54:28;;;;;;;9.70;7.13;;;;;;;-1.56;74.99;97955.09;6176898;28;20244;-80
2022/04/04 03:57:30;;;;;;;8.20;6.67;;;;;;;-1.61;75.17;97951.81;6155399;28;20281;-80
2022/04/04 04:00:32;;;;;;;7.47;6.70;;;;;;;-1.60;75.11;97953.50;6160088;28;20241;-80
2022/04/04 04:03:36;;;;;;;14.33;7.20;;;;;;;-1.59;75.58;97953.44;6167187;28;20227;-80
2022/04/04 04:06:38;;;;;;;8.80;6.63;;;;;;;-1.58;74.44;97952.53;6181705;28;20308;-80
2022/04/04 04:09:41;;;;;;;8.10;6.50;;;;;;;-1.58;74.55;97952.53;6179380;28;20259;-80
2022/04/04 04:12:45;;;;;;;7.37;5.93;;;;;;;-1.60;74.50;97951.72;6179566;28;20229;-81
2022/04/04 04:15:47;;;;;;;9.30;7.13;;;;;;;-1.67;75.21;97945.03;6162827;28;20244;-81
2022/04/04 04:18:50;;;;;;;11.20;6.87;;;;;;;-1.67;74.75;97946.78;6179095;28;20224;-81
2022/04/04 04:21:52;;;;;;;9.20;7.03;;;;;;;-1.63;74.12;97945.81;6179254;28;20232;-81
2022/04/04 04:24:54;;;;;;;9.03;6.67;;;;;;;-1.60;74.41;97953.50;6179525;28;20581;-81
2022/04/04 04:27:59;;;;;;;8.83;6.47;;;;;;;-1.60;74.53;97946.56;6179196;28;20229;-81
2022/04/04 04:31:02;;;;;;;8.97;6.33;;;;;;;-1.61;74.47;97947.47;6186274;28;20233;-81
2022/04/04 04:34:04;;;;;;;9.00;6.50;;;;;;;-1.58;74.05;97947.38;6179903;28;20748;-81
2022/04/04 04:37:07;;;;;;;9.80;6.57;;;;;;;-1.59;74.23;97940.50;6177862;28;20256;-81
2022/04/04 04:40:10;;;;;;;8.30;6.53;;;;;;;-1.56;73.79;97942.16;6180122;28;20233;-81
2022/04/04 04:43:12;;;;;;;8.23;6.80;;;;;;;-1.55;73.68;97949.03;6162008;28;20236;-81
2022/04/04 04:46:14;;;;;;;10.13;6.87;;;;;;;-1.55;73.56;97947.28;6178763;28;20599;-81
2022/04/04 04:49:16;;;;;;;8.33;6.13;;;;;;;-1.55;73.75;97947.28;6163685;28;20336;-80
2022/04/04 04:52:18;;;;;;;8.97;6.37;;;;;;;-1.64;73.96;97946.69;6180835;28;20597;-81
2022/04/04 04:55:23;;;;;;;9.63;6.67;;;;;;;-1.79;74.29;97957.44;6178018;28;20716;-81
2022/04/04 04:58:25;;;;;;;8.30;6.27;;;;;;;-1.80;74.25;97959.22;6178169;28;20237;-81
2022/04/04 05:01:27;;;;;;;9.30;6.53;;;;;;;-1.86;74.09;97960.22;6178168;28;20228;-81
2022/04/04 05:04:30;;;;;;;9.00;6.47;;;;;;;-1.93;74.17;97963.00;6179632;28;20225;-81
2022/04/04 05:07:32;;;;;;;6.67;5.80;;;;;;;-2.07;75.30;97963.34;6158268;28;20244;-81
2022/04/04 05:10:35;;;;;;;7.57;6.20;;;;;;;-2.16;75.50;97958.41;6178675;28;20259;-81
2022/04/04 05:13:37;;;;;;;8.47;6.70;;;;;;;-2.25;76.21;97967.25;6177516;28;20584;-81
2022/04/04 05:16:39;;;;;;;8.47;6.57;;;;;;;-2.31;76.60;97970.00;6178887;28;20723;-81
2022/04/04 05:19:43;;;;;;;7.27;5.87;;;;;;;-2.35;76.84;97970.09;6178949;28;20314;-81
2022/04/04 05:22:46;;;;;;;9.67;6.83;;;;;;;-2.37;76.42;97971.88;6177250;28;20241;-81
2022/04/04 05:25:48;;;;;;;9.90;6.53;;;;;;;-2.36;76.47;97976.16;6178377;28;20224;-81
2022/04/04 05:28:50;;;;;;;9.17;6.37;;;;;;;-2.36;76.75;97977.00;6180358;28;20225;-81
2022/04/04 05:31:55;;;;;;;6.67;5.63;;;;;;;-2.38;76.94;97972.75;6201891;28;20232;-81
2022/04/04 05:34:57;;;;;;;7.63;5.97;;;;;;;-2.37;77.36;97974.44;6179347;28;20248;-81
2022/04/04 05:37:59;;;;;;;8.70;6.47;;;;;;;-2.30;77.54;97976.88;6178822;28;20233;-81
2022/04/04 05:41:01;;;;;;;9.67;6.87;;;;;;;-2.26;77.19;97965.56;6161272;28;20244;-80
2022/04/04 05:44:04;;;;;;;10.00;6.90;;;;;;;-2.22;77.55;97973.25;6184449;28;20237;-81
2022/04/04 05:47:07;;;;;;;9.40;6.57;;;;;;;-2.24;77.14;97978.44;6167012;28;20316;-81
2022/04/04 05:50:09;;;;;;;10.30;6.93;;;;;;;-2.24;77.24;97991.38;6184260;28;20248;-81
2022/04/04 05:53:11;;;;;;;7.63;6.13;;;;;;;-2.21;77.18;97987.88;6184132;28;20268;-80
2022/04/04 05:56:14;;;;;;;9.20;6.63;;;;;;;-2.21;77.61;97985.28;6168191;28;20282;-81
2022/04/04 05:59:16;;;;;;;10.30;6.70;;;;;;;-2.19;77.95;97986.06;6182363;28;20708;-81
2022/04/04 06:02:22;;;;;;;9.83;7.10;;;;;;;-2.15;77.94;97982.53;6183806;28;20236;-80
2022/04/04 06:05:25;;;;;;;8.37;6.27;;;;;;;-2.08;77.94;97984.91;6182576;28;20237;-81
2022/04/04 06:08:27;;;;;;;7.93;5.93;;;;;;;-2.07;77.58;97980.59;6166218;28;20228;-81
2022/04/04 06:11:29;;;;;;;9.10;5.90;;;;;;;-2.04;77.56;97988.28;6181020;28;20240;-80
2022/04/04 06:14:32;;;;;;;9.27;6.70;;;;;;;-1.98;78.09;97988.97;6183062;28;20225;-80
2022/04/04 06:17:34;;;;;;;9.57;7.70;;;;;;;-1.90;77.73;97983.63;6181632;28;20243;-81
2022/04/04 06:20:38;;;;;;;9.83;7.17;;;;;;;-1.77;77.76;97986.72;6183788;28;20233;-80
2022/04/04 06:23:40;;;;;;;8.30;6.57;;;;;;;-1.64;76.52;97981.19;6181295;28;20328;-80
2022/04/04 06:26:43;;;;;;;8.23;6.60;;;;;;;-1.48;75.81;97979.00;6166148;28;20851;-81
2022/04/04 06:29:46;;;;;;;9.07;6.13;;;;;;;-1.33;74.36;97983.78;6170893;28;20225;-81
2022/04/04 06:32:48;;;;;;;8.17;5.90;;;;;;;-1.13;73.05;97978.03;6187087;28;20231;-81
2022/04/04 06:35:52;;;;;;;7.77;6.63;;;;;;;-0.97;72.43;97981.84;6181567;28;20260;-81
2022/04/04 06:38:54;;;;;;;6.07;5.30;;;;;;;-0.85;70.33;97980.66;6171670;28;20622;-81
2022/04/04 06:41:56;;;;;;;7.60;5.87;;;;;;;-0.69;70.08;97981.00;6181618;28;20240;-81
2022/04/04 06:44:58;;;;;;;8.90;6.03;;;;;;;-0.64;70.01;97977.41;6165210;28;20232;-81
2022/04/04 06:48:01;;;;;;;7.40;5.60;;;;;;;-0.61;70.37;97986.84;6174043;28;20245;-81
2022/04/04 06:51:05;;;;;;;6.63;5.23;;;;;;;-0.57;69.71;97989.28;6182255;28;20228;-80
2022/04/04 06:54:25;;;;;;;6.57;5.77;;;;;;;-0.52;69.75;97973.59;6160620;28;20581;-81
2022/04/04 06:57:28;;;;;;;7.50;5.60;;;;;;;-0.41;68.37;97971.50;6138595;28;20233;-81
2022/04/04 07:00:35;;;;;;;7.17;5.20;;;;;;;-0.27;66.72;97984.84;6139050;28;20222;-81
2022/04/04 07:03:37;;;;;;;6.83;5.13;;;;;;;-0.12;65.53;97968.81;6155098;28;20301;-81
2022/04/04 07:06:39;;;;;;;6.67;4.80;;;;;;;-0.01;65.78;97968.47;6155173;28;20229;-81
2022/04/04 07:09:41;;;;;;;5.90;4.90;;;;;;;0.08;66.28;97969.88;6155216;28;20233;-81
2022/04/04 07:12:44;;;;;;;7.27;5.07;;;;;;;0.22;64.25;97967.66;6138418;28;20237;-81
2022/04/04 07:15:46;;;;;;;9.00;5.43;;;;;;;0.40;62.66;97961.00;6138664;28;20312;-81
2022/04/04 07:18:49;;;;;;;6.17;5.03;;;;;;;0.57;62.17;97959.50;6139505;28;20236;-81
2022/04/04 07:21:54;;;;;;;5.67;4.60;;;;;;;0.83;61.91;97962.88;6155057;28;20226;-81
2022/04/04 07:24:57;;;;;;;4.67;4.17;;;;;;;1.10;61.83;97959.22;6140135;28;20252;-81
2022/04/04 07:27:59;;;;;;;6.83;4.67;;;;;;;1.38;58.45;97953.84;6157142;28;21342;-81
2022/04/04 07:31:06;;;;;;;4.57;3.97;;;;;;;1.70;58.22;97960.34;6172975;28;20596;-81
2022/04/04 07:34:11;;;;;;;5.07;4.40;;;;;;;2.06;57.70;97955.41;6167023;28;20320;-81
2022/04/04 07:37:13;;;;;;;5.43;3.90;;;;;;;2.36;56.61;97946.28;6150502;28;20229;-81
2022/04/04 07:40:18;;;;;;;7.07;3.50;;;;;;;2.67;55.68;97945.78;6179817;28;20256;-81
2022/04/04 07:43:20;;;;;;;5.60;3.90;;;;;;;2.90;53.06;97948.19;6164115;28;20221;-81
2022/04/04 07:46:23;;;;;;;5.30;3.27;;;;;;;3.04;51.72;97937.13;6180973;28;20229;-81
2022/04/04 07:49:25;;;;;;;3.77;3.23;;;;;;;3.52;51.42;97928.75;6159713;28;20336;-81
2022/04/04 07:52:27;;;;;;;4.17;3.13;;;;;;;3.84;50.80;97927.19;6180162;28;20244;-81
2022/04/04 07:55:30;;;;;;;3.57;3.27;;;;;;;4.03;47.84;97921.91;6172240;28;20249;-81
2022/04/04 07:58:32;;;;;;;4.47;3.10;;;;;;;4.33;48.48;97928.19;6173646;28;20244;-81
2022/04/04 08:01:35;;;;;;;4.43;3.37;;;;;;;4.45;47.75;97919.72;6182065;28;20235;-81
2022/04/04 08:04:43;;;;;;;4.40;2.67;;;;;;;4.58;46.18;97912.09;6182642;28;20235;-81
2022/04/04 08:07:47;;;;;;;4.23;3.07;;;;;;;4.67;47.94;97909.00;6163899;28;20233;-82
2022/04/04 08:10:50;;;;;;;3.63;2.70;;;;;;;4.83;46.23;97909.84;6164431;28;20227;-81
2022/04/04 08:13:52;;;;;;;4.50;3.00;;;;;;;5.10;45.11;97915.34;6179657;28;20281;-82
2022/04/04 08:16:56;;;;;;;5.90;2.90;;;;;;;5.44;44.13;97898.66;6180806;28;20601;-81
2022/04/04 08:19:58;;;;;;;4.17;3.07;;;;;;;5.67;43.41;97897.34;6172999;28;20822;-82
2022/04/04 08:23:00;;;;;;;3.77;3.13;;;;;;;5.81;41.99;97893.91;6176695;28;20238;-82
2022/04/04 08:26:02;;;;;;;5.13;3.40;;;;;;;5.40;43.83;97901.50;6163425;28;20242;-82
2022/04/04 08:29:05;;;;;;;3.10;2.60;;;;;;;6.01;43.64;97898.88;6179562;28;20244;-82
2022/04/04 08:32:08;;;;;;;4.03;2.90;;;;;;;6.11;44.94;97899.19;6194909;28;20727;-82
2022/04/04 08:35:14;;;;;;;2.93;2.60;;;;;;;6.34;42.12;97896.06;6178828;28;20597;-82
2022/04/04 08:38:16;;;;;;;3.80;2.80;;;;;;;6.42;40.93;97895.59;6178750;28;20291;-82
2022/04/04 08:41:21;;;;;;;3.73;2.90;;;;;;;6.42;42.35;97892.97;6178713;28;20283;-82
2022/04/04 08:44:28;;;;;;;4.27;2.80;;;;;;;6.93;40.81;97884.53;6163637;28;20245;-82
2022/04/04 08:47:32;;;;;;;3.20;2.90;;;;;;;7.22;39.88;97876.59;6161411;28;20229;-82
2022/04/04 08:50:36;;;;;;;2.77;2.57;;;;;;;7.15;39.96;97867.44;6155575;28;20597;-82
2022/04/04 08:53:39;;;;;;;4.30;3.13;;;;;;;7.72;39.76;97860.19;6171974;28;20264;-82
2022/04/04 08:56:43;;;;;;;2.97;2.77;;;;;;;7.93;38.76;97858.78;6178960;28;20237;-82
2022/04/04 08:59:45;;;;;;;3.47;2.97;;;;;;;8.04;38.96;97858.06;6164061;28;20291;-82
2022/04/04 09:03:02;;;;;;;3.70;2.87;;;;;;;7.95;36.47;97854.28;6179188;28;20255;-82
2022/04/04 09:06:05;;;;;;;2.40;2.20;;;;;;;8.07;38.97;97849.97;6162267;28;20234;-82
2022/04/04 09:09:07;;;;;;;3.10;2.80;;;;;;;8.54;38.68;97846.75;6179099;28;20288;-82
2022/04/04 09:12:11;;;;;;;4.77;2.83;;;;;;;8.67;38.36;97831.81;6162853;28;20217;-82
2022/04/04 09:15:13;;;;;;;2.80;2.50;;;;;;;9.07;37.35;97831.59;6177369;28;20678;-82
2022/04/04 09:18:16;;;;;;;5.30;3.27;;;;;;;8.63;35.32;97840.00;6178043;28;20213;-82
2022/04/04 09:21:19;;;;;;;2.97;2.67;;;;;;;8.28;35.82;97835.38;6177920;28;20278;-82
2022/04/04 09:24:21;;;;;;;3.27;2.97;;;;;;;8.58;37.08;97829.81;6149716;28;20376;-82
2022/04/04 09:27:26;;;;;;;3.33;2.80;;;;;;;8.48;36.98;97823.53;6156681;28;20227;-81
2022/04/04 09:30:29;;;;;;;3.30;3.00;;;;;;;8.55;35.81;97816.03;6145936;28;20236;-82
2022/04/04 09:33:39;;;;;;;4.83;2.87;;;;;;;8.72;35.10;97805.16;6179832;28;20320;-82
2022/04/04 09:36:46;;;;;;;3.73;2.73;;;;;;;9.16;36.33;97805.47;6162072;28;20237;-81
2022/04/04 09:40:03;;;;;;;4.20;3.00;;;;;;;9.48;35.52;97802.25;6179280;28;20682;-84
2022/04/04 09:43:15;;;;;;;4.37;3.00;;;;;;;9.78;36.36;97791.22;6177904;28;20706;-82
2022/04/04 09:46:18;;;;;;;4.03;3.03;;;;;;;9.35;34.99;97788.31;6178219;28;20346;-81
2022/04/04 09:49:20;;;;;;;3.80;3.13;;;;;;;9.36;33.85;97785.56;6177693;28;20735;-82
2022/04/04 09:52:23;;;;;;;3.57;3.27;;;;;;;9.51;37.31;97797.59;6161581;28;20240;-82
2022/04/04 09:55:36;;;;;;;3.47;3.00;;;;;;;9.89;36.11;97783.31;6161826;28;20245;-82
2022/04/04 09:58:39;;;;;;;3.33;3.03;;;;;;;9.91;34.84;97773.50;6166140;28;20233;-82
2022/04/04 10:01:44;;;;;;;5.33;3.33;;;;;;;10.23;35.76;97761.38;6177746;28;20311;-82
2022/04/04 10:04:48;;;;;;;5.97;3.30;;;;;;;9.50;34.78;97756.38;6177612;28;20231;-82
2022/04/04 10:07:52;;;;;;;3.63;3.03;;;;;;;9.88;34.85;97753.47;6177102;28;20712;-82
2022/04/04 10:10:59;;;;;;;3.70;2.93;;;;;;;10.23;33.32;97748.19;6178628;28;20236;-82
2022/04/04 10:14:02;;;;;;;4.20;3.27;;;;;;;9.93;35.18;97732.06;6137553;28;20233;-82
2022/04/04 10:17:05;;;;;;;3.63;2.90;;;;;;;9.11;33.31;97731.22;6158615;28;20298;-82
2022/04/04 10:20:11;;;;;;;4.10;3.10;;;;;;;9.33;36.20;97742.78;6177400;28;20244;-82
2022/04/04 10:23:14;;;;;;;3.20;2.87;;;;;;;9.51;35.56;97723.81;6168718;28;20655;-81
2022/04/04 10:26:20;;;;;;;3.10;2.80;;;;;;;10.18;34.96;97723.94;6177276;28;20272;-82
2022/04/04 10:29:24;;;;;;;3.80;3.40;;;;;;;10.72;35.19;97712.63;6179380;28;20231;-82
2022/04/04 10:32:28;;;;;;;3.10;2.67;;;;;;;10.45;34.19;97707.78;6182530;28;20236;-81
2022/04/04 10:35:32;;;;;;;3.20;2.67;;;;;;;10.85;33.64;97699.28;6183326;28;20240;-82
2022/04/04 10:38:44;;;;;;;3.57;3.27;;;;;;;10.47;33.14;97689.19;6181135;28;20224;-82
2022/04/04 10:41:47;;;;;;;3.83;2.47;;;;;;;10.76;32.75;97679.75;6166148;28;20240;-82
2022/04/04 10:44:50;;;;;;;2.93;2.60;;;;;;;10.89;33.31;97684.88;6183160;28;20240;-81
2022/04/04 10:48:03;;;;;;;3.10;2.70;;;;;;;11.29;33.38;97671.84;6182227;28;20779;-82
2022/04/04 10:51:28;;;;;;;3.30;3.00;;;;;;;11.20;34.35;97676.09;6146400;28;20247;-82
2022/04/04 10:54:30;;;;;;;2.67;2.47;;;;;;;10.78;33.36;97680.44;6167442;28;20238;-82
2022/04/04 10:57:40;;;;;;;3.37;3.07;;;;;;;10.65;33.81;97664.78;6181575;28;20240;-82
2022/04/04 11:01:20;;;;;;;3.17;2.87;;;;;;;10.50;34.24;97667.81;6165409;28;20225;-82
2022/04/04 11:04:27;;;;;;;3.37;3.07;;;;;;;9.78;34.25;97660.25;6182715;28;20237;-82
2022/04/04 11:07:41;;;;;;;3.63;2.80;;;;;;;9.77;36.05;97655.97;6157075;28;20318;-82
2022/04/04 11:10:48;;;;;;;2.77;2.57;;;;;;;9.88;35.75;97649.88;6182227;28;20233;-82
2022/04/04 11:13:51;;;;;;;2.90;2.70;;;;;;;9.57;34.98;97652.25;6163788;28;20696;-82
2022/04/04 11:17:08;;;;;;;3.13;2.83;;;;;;;9.77;33.55;97634.06;6180987;28;20322;-81
2022/04/04 11:20:31;;;;;;;2.80;2.60;;;;;;;10.69;35.76;97631.88;6182869;28;20228;-82
2022/04/04 11:23:36;;;;;;;2.87;2.60;;;;;;;10.92;34.08;97619.44;6180358;28;20244;-82
2022/04/04 11:26:40;;;;;;;2.60;2.40;;;;;;;10.96;32.09;97612.97;6164523;28;20236;-82
2022/04/04 11:29:46;;;;;;;2.73;2.47;;;;;;;10.31;33.69;97615.69;6186510;28;20713;-82
2022/04/04 11:32:54;;;;;;;2.83;2.57;;;;;;;9.49;34.80;97625.63;6183557;28;20674;-82
2022/04/04 11:35:58;;;;;;;2.60;2.40;;;;;;;9.41;35.86;97616.63;6180344;28;20228;-81
2022/04/04 11:39:03;;;;;;;2.67;2.47;;;;;;;9.87;35.17;97613.94;6164377;28;20240;-82
2022/04/04 11:42:07;;;;;;;3.03;2.80;;;;;;;11.52;32.49;97598.59;6181781;28;20240;-82
2022/04/04 11:45:15;;;;;;;3.00;2.70;;;;;;;12.47;31.42;97592.84;6179606;28;20229;-82
2022/04/04 11:48:23;;;;;;;3.43;3.13;;;;;;;11.85;32.09;97586.94;6179669;28;20229;-82
2022/04/04 11:51:31;;;;;;;2.73;2.50;;;;;;;12.24;31.07;97570.22;6164586;28;20254;-82
2022/04/04 11:54:40;;;;;;;2.60;2.40;;;;;;;12.96;30.09;97572.50;6181864;28;20238;-82
2022/04/04 11:57:46;;;;;;;2.40;2.20;;;;;;;13.49;30.53;97575.50;6164629;28;20730;-82
2022/04/04 12:00:55;;;;;;;2.80;2.60;;;;;;;13.74;29.05;97559.94;6179806;28;20305;-82
2022/04/04 12:04:00;;;;;;;2.20;2.10;;;;;;;12.97;30.11;97547.69;6179948;28;20244;-82
2022/04/04 12:07:09;;;;;;;3.53;2.43;;;;;;;12.04;30.47;97540.25;6183460;28;20326;-82
2022/04/04 12:10:16;;;;;;;2.20;2.03;;;;;;;12.20;30.03;97550.28;6164259;28;20243;-82
2022/04/04 12:13:23;;;;;;;3.40;2.50;;;;;;;12.25;30.18;97539.31;6163750;28;20259;-82
2022/04/04 12:16:27;;;;;;;2.97;2.67;;;;;;;12.12;29.66;97539.56;6179217;28;20322;-82
2022/04/04 12:19:30;;;;;;;3.17;2.97;;;;;;;11.68;31.38;97528.41;6168896;28;20241;-82
2022/04/04 12:25:56;;;;;;;2.60;2.40;;;;;;;13.16;30.57;97507.94;6180631;28;20231;-82
2022/04/04 12:28:58;;;;;;;2.33;2.13;;;;;;;12.92;28.23;97505.72;6162496;28;20239;-82
2022/04/04 12:32:00;;;;;;;2.83;2.60;;;;;;;13.35;28.13;97493.81;6185487;28;20606;-82
2022/04/04 12:35:06;;;;;;;2.63;2.43;;;;;;;13.47;28.93;97490.00;6182703;28;20237;-81
2022/04/04 12:38:08;;;;;;;3.10;2.30;;;;;;;14.64;29.13;97483.81;6178706;28;20385;-82
2022/04/04 12:41:15;;;;;;;3.63;2.07;;;;;;;15.22;27.48;97472.59;6178684;28;20236;-82
2022/04/04 12:44:24;;;;;;;2.60;2.40;;;;;;;14.78;28.17;97469.13;6155143;28;20605;-82
2022/04/04 12:47:27;;;;;;;2.43;2.23;;;;;;;13.85;28.21;97466.91;6140738;28;20724;-82
2022/04/04 12:50:49;;;;;;;2.33;2.13;;;;;;;13.95;28.64;97479.13;6146400;28;20610;-82
2022/04/04 12:53:53;;;;;;;2.43;2.23;;;;;;;14.07;28.78;97461.19;6161941;28;20241;-82
2022/04/04 12:56:56;;;;;;;2.83;2.63;;;;;;;13.66;29.31;97452.78;6176832;28;20235;-82
2022/04/04 12:59:58;;;;;;;3.17;2.77;;;;;;;13.94;28.74;97453.59;6181174;28;20244;-82
2022/04/04 13:03:19;;;;;;;2.90;2.23;;;;;;;15.00;29.21;97439.41;6169836;28;20233;-82
2022/04/04 13:06:23;;;;;;;2.50;2.20;;;;;;;14.00;28.40;97436.22;6178642;28;20232;-82
2022/04/04 13:09:26;;;;;;;2.33;2.13;;;;;;;14.71;27.97;97426.41;6177710;28;20905;-82
2022/04/04 13:12:30;;;;;;;2.43;2.23;;;;;;;15.34;26.45;97415.50;6179113;28;20716;-82
2022/04/04 13:15:37;;;;;;;2.80;2.60;;;;;;;15.16;28.44;97406.78;6177803;28;20224;-82
2022/04/04 13:18:39;;;;;;;2.07;1.97;;;;;;;15.11;27.73;97403.75;6177613;28;20645;-82
2022/04/04 13:21:44;;;;;;;2.30;2.10;;;;;;;15.59;26.87;97405.81;6162030;28;20240;-82
2022/04/04 13:24:46;;;;;;;2.47;2.27;;;;;;;15.07;27.18;97403.22;6171334;28;20221;-82
2022/04/04 13:27:48;;;;;;;2.73;2.53;;;;;;;14.70;27.40;97407.97;6181663;28;20272;-82
2022/04/04 13:30:50;;;;;;;2.83;2.27;;;;;;;15.20;27.15;97376.22;6177785;28;20302;-82
2022/04/04 13:33:56;;;;;;;2.40;2.20;;;;;;;15.60;26.49;97378.22;6162016;28;20336;-82
2022/04/04 13:36:58;;;;;;;2.33;2.13;;;;;;;16.49;24.58;97372.16;6178968;28;20741;-82
2022/04/04 13:40:00;;;;;;;2.30;2.10;;;;;;;16.89;25.72;97355.31;6162255;28;20232;-82
2022/04/04 13:43:02;;;;;;;2.67;2.47;;;;;;;16.83;25.24;97364.84;6162804;28;20228;-82
2022/04/04 13:46:05;;;;;;;2.47;2.27;;;;;;;17.29;24.82;97360.53;6177397;28;20229;-82
2022/04/04 13:49:07;;;;;;;2.20;2.00;;;;;;;18.05;23.53;97340.28;6178888;28;20239;-82
2022/04/04 13:52:13;;;;;;;2.60;2.40;;;;;;;19.88;22.74;97325.25;6161070;28;20336;-82
2022/04/04 13:55:16;;;;;;;2.63;2.40;;;;;;;21.39;20.62;97314.03;6179047;28;20264;-82
2022/04/04 13:58:19;;;;;;;3.20;2.63;;;;;;;21.20;20.67;97320.97;6177582;28;20248;-82
2022/04/04 14:01:23;;;;;;;2.73;2.40;;;;;;;19.63;21.48;97325.78;6179243;28;20237;-82
2022/04/04 14:04:26;;;;;;;2.60;2.40;;;;;;;21.13;19.77;97308.53;6176993;28;20335;-82
2022/04/04 14:07:29;;;;;;;2.60;1.90;;;;;;;21.20;20.19;97298.69;6180791;28;20252;-82
2022/04/04 14:10:31;;;;;;;2.50;2.30;;;;;;;21.18;19.64;97293.50;6184931;28;20235;-82
2022/04/04 14:13:48;;;;;;;2.90;2.60;;;;;;;17.15;23.46;97301.75;6183148;28;20232;-82
2022/04/04 14:16:52;;;;;;;2.80;2.60;;;;;;;15.56;25.83;97296.28;6165751;28;20237;-82
2022/04/04 14:19:54;;;;;;;2.70;2.50;;;;;;;15.01;26.77;97296.72;6174382;28;20591;-82
2022/04/04 14:22:56;;;;;;;1.90;1.80;;;;;;;14.56;27.53;97281.91;6183472;28;20236;-82
2022/04/04 14:25:59;;;;;;;2.43;2.13;;;;;;;14.14;28.46;97288.91;6185164;28;20328;-82
2022/04/04 14:29:02;;;;;;;2.40;2.20;;;;;;;12.77;30.15;97278.59;6166452;28;20602;-82
2022/04/04 14:32:05;;;;;;;2.10;1.80;;;;;;;12.77;29.86;97271.47;6167635;28;20298;-82
2022/04/04 14:35:07;;;;;;;2.60;2.40;;;;;;;12.93;31.13;97258.41;6166652;28;20231;-82